header
chart

Reported and forecast weather at local airports

Important: not to be used for flight planning purposes.


EGBB METAR fetched   Thursday 22nd Feb @ 14:10:18
EGBB 221350Z 08009KT 9000 BKN025 02/M03 Q1024

EGCC METAR fetched   Thursday 22nd Feb @ 14:10:14
EGCC 221350Z AUTO 14006KT 060V190 9999 BKN029 BKN033 04/M03 Q1024 NOSIG

EGGP METAR fetched   Thursday 22nd Feb @ 14:10:15
EGGP 221350Z 15010KT 9999 FEW024 SCT030 04/M01 Q1024

EGNH METAR fetched   Thursday 22nd Feb @ 14:10:16
EGNH 221350Z 15012KT 9999 FEW029 06/00 Q1024

EGNM METAR fetched   Thursday 22nd Feb @ 14:10:17
EGNM 221350Z 14010KT 110V190 9999 SCT024 SCT027 03/M03 Q1024

EGOV METAR fetched   Thursday 22nd Feb @ 14:10:18
EGOV 221350Z 16013KT 9999 FEW025 BKN033 06/M01 Q1023 BLU NOSIG


EGBB TAF fetched   Thursday 22nd Feb @ 14:10:18
TAF TAF EGBB 221100Z 2212/2312 10009KT 9999 SCT025 PROB40 2212/2312 8000

EGCC TAF fetched   Thursday 22nd Feb @ 14:10:14
TAF EGCC 221100Z 2212/2318 13008KT 9999 SCT035 PROB40 2218/2318 8000

EGGP TAF fetched   Thursday 22nd Feb @ 14:10:15
TAF EGGP 221100Z 2212/2312 13008KT 9999 SCT025 PROB40 2212/2312 8000

EGNM TAF fetched   Thursday 22nd Feb @ 14:10:17
TAF TAF EGNM 221053Z 2212/2312 12008KT 6000 SCT020 BECMG 2212/2215 9999 PROB30 TEMPO 2215/2312 7000

EGOV TAF fetched   Thursday 22nd Feb @ 14:10:19
TAF TAF EGOV 190525Z 1906/1918 04008KT CAVOK PROB30 TEMPO 1906/1912 6000 SHRA TEMPO 1912/1915 4000 +SHRA SCT020 BKN030CB PROB30 TEMPO 1913/1915 VRBG20G30KT 2500 TSGR BKN012

Every effort is made to ensure that this information is free from errors but as it is provided by a third party the accuracy of the reports cannot be guaranteed.